sensor_id;sensor_type;location;lat;lon;timestamp;pressure;altitude;pressure_sealevel;temperature;humidity
45078;BME280;60508;42.622;25.416;2023-02-02T00:00:56;96631.53;;;3.77;51.96
45078;BME280;60508;42.622;25.416;2023-02-02T00:03:22;96688.00;;;3.93;52.16
45078;BME280;60508;42.622;25.416;2023-02-02T00:05:50;96678.56;;;4.03;52.13
45078;BME280;60508;42.622;25.416;2023-02-02T00:08:17;96673.06;;;4.12;51.92
45078;BME280;60508;42.622;25.416;2023-02-02T00:10:44;96672.22;;;4.18;50.47
45078;BME280;60508;42.622;25.416;2023-02-02T00:13:11;96687.16;;;4.26;49.96
45078;BME280;60508;42.622;25.416;2023-02-02T00:15:38;96685.94;;;4.35;50.43
45078;BME280;60508;42.622;25.416;2023-02-02T00:18:05;96688.41;;;4.36;50.34
45078;BME280;60508;42.622;25.416;2023-02-02T00:20:31;96681.25;;;4.24;51.00
45078;BME280;60508;42.622;25.416;2023-02-02T00:23:01;96689.41;;;4.29;50.73
45078;BME280;60508;42.622;25.416;2023-02-02T00:25:28;96678.97;;;4.27;51.12
45078;BME280;60508;42.622;25.416;2023-02-02T00:27:54;96680.63;;;4.28;51.15
45078;BME280;60508;42.622;25.416;2023-02-02T00:30:21;96686.75;;;4.29;51.09
45078;BME280;60508;42.622;25.416;2023-02-02T00:32:47;96686.34;;;4.32;50.96
45078;BME280;60508;42.622;25.416;2023-02-02T00:35:15;96700.03;;;4.49;50.75
45078;BME280;60508;42.622;25.416;2023-02-02T00:37:41;96693.25;;;4.66;50.71
45078;BME280;60508;42.622;25.416;2023-02-02T00:40:08;96690.56;;;4.73;50.63
45078;BME280;60508;42.622;25.416;2023-02-02T00:42:35;96691.63;;;4.72;50.34
45078;BME280;60508;42.622;25.416;2023-02-02T00:45:02;96690.78;;;4.71;50.12
45078;BME280;60508;42.622;25.416;2023-02-02T00:47:46;96690.00;;;4.64;51.32
45078;BME280;60508;42.622;25.416;2023-02-02T00:50:18;96695.09;;;4.72;50.98
45078;BME280;60508;42.622;25.416;2023-02-02T00:52:48;96697.16;;;4.70;51.61
45078;BME280;60508;42.622;25.416;2023-02-02T00:55:15;96696.13;;;4.78;52.47
45078;BME280;60508;42.622;25.416;2023-02-02T00:57:41;96701.84;;;4.82;53.25
45078;BME280;60508;42.622;25.416;2023-02-02T01:00:17;96714.09;;;4.89;54.79
45078;BME280;60508;42.622;25.416;2023-02-02T01:02:44;96715.13;;;4.88;56.14
45078;BME280;60508;42.622;25.416;2023-02-02T01:05:11;96720.00;;;4.98;58.13
45078;BME280;60508;42.622;25.416;2023-02-02T01:07:38;96713.47;;;4.94;60.21
45078;BME280;60508;42.622;25.416;2023-02-02T01:10:05;96707.38;;;4.80;64.01
45078;BME280;60508;42.622;25.416;2023-02-02T01:12:31;96711.28;;;4.64;65.34
45078;BME280;60508;42.622;25.416;2023-02-02T01:14:57;96707.41;;;4.53;66.00
45078;BME280;60508;42.622;25.416;2023-02-02T01:17:23;96696.56;;;4.48;65.80
45078;BME280;60508;42.622;25.416;2023-02-02T01:19:49;96688.59;;;4.42;66.20
45078;BME280;60508;42.622;25.416;2023-02-02T01:22:15;96696.97;;;4.38;65.47
45078;BME280;60508;42.622;25.416;2023-02-02T01:24:41;96693.50;;;4.38;66.23
45078;BME280;60508;42.622;25.416;2023-02-02T01:27:06;96685.75;;;4.36;66.92
45078;BME280;60508;42.622;25.416;2023-02-02T01:29:32;96694.34;;;4.32;67.21
45078;BME280;60508;42.622;25.416;2023-02-02T01:31:58;96684.31;;;4.27;67.18
45078;BME280;60508;42.622;25.416;2023-02-02T01:34:24;96675.72;;;4.18;66.11
45078;BME280;60508;42.622;25.416;2023-02-02T01:36:51;96686.78;;;4.15;65.88
45078;BME280;60508;42.622;25.416;2023-02-02T01:39:17;96679.81;;;4.21;63.63
45078;BME280;60508;42.622;25.416;2023-02-02T01:41:42;96677.97;;;4.28;62.46
45078;BME280;60508;42.622;25.416;2023-02-02T01:47:12;96682.25;;;4.23;63.50
45078;BME280;60508;42.622;25.416;2023-02-02T01:49:39;96682.88;;;4.05;62.74
45078;BME280;60508;42.622;25.416;2023-02-02T01:52:06;96679.22;;;3.99;63.24
45078;BME280;60508;42.622;25.416;2023-02-02T01:54:40;96670.00;;;3.88;63.54
45078;BME280;60508;42.622;25.416;2023-02-02T01:57:28;96669.38;;;3.93;63.93
45078;BME280;60508;42.622;25.416;2023-02-02T01:59:57;96668.53;;;3.92;64.20
45078;BME280;60508;42.622;25.416;2023-02-02T02:02:26;96661.63;;;3.91;64.77
45078;BME280;60508;42.622;25.416;2023-02-02T02:04:53;96656.91;;;3.93;65.96
45078;BME280;60508;42.622;25.416;2023-02-02T02:07:20;96652.00;;;3.83;66.83
45078;BME280;60508;42.622;25.416;2023-02-02T02:09:47;96658.56;;;3.88;67.22
45078;BME280;60508;42.622;25.416;2023-02-02T02:12:14;96667.75;;;3.85;67.70
45078;BME280;60508;42.622;25.416;2023-02-02T02:14:43;96676.09;;;3.69;68.23
45078;BME280;60508;42.622;25.416;2023-02-02T02:17:45;96682.03;;;3.64;68.91
45078;BME280;60508;42.622;25.416;2023-02-02T02:20:39;96674.66;;;3.53;69.23
45078;BME280;60508;42.622;25.416;2023-02-02T02:31:08;96647.66;;;3.49;69.83
45078;BME280;60508;42.622;25.416;2023-02-02T02:38:40;96643.16;;;3.43;69.87
45078;BME280;60508;42.622;25.416;2023-02-02T02:41:14;96654.41;;;3.45;70.27
45078;BME280;60508;42.622;25.416;2023-02-02T02:43:49;96644.38;;;3.40;70.37
45078;BME280;60508;42.622;25.416;2023-02-02T02:46:18;96624.13;;;3.33;70.19
45078;BME280;60508;42.622;25.416;2023-02-02T02:48:45;96642.13;;;3.44;70.66
45078;BME280;60508;42.622;25.416;2023-02-02T03:05:32;96633.34;;;3.37;71.10
45078;BME280;60508;42.622;25.416;2023-02-02T03:10:52;96643.38;;;3.48;68.66
45078;BME280;60508;42.622;25.416;2023-02-02T03:13:21;96635.00;;;3.44;69.50
45078;BME280;60508;42.622;25.416;2023-02-02T03:15:47;96636.00;;;3.43;69.29
45078;BME280;60508;42.622;25.416;2023-02-02T03:18:15;96632.53;;;3.50;67.76
45078;BME280;60508;42.622;25.416;2023-02-02T03:20:43;96638.66;;;3.50;67.73
45078;BME280;60508;42.622;25.416;2023-02-02T03:23:11;96637.25;;;3.54;67.90
45078;BME280;60508;42.622;25.416;2023-02-02T03:25:37;96647.03;;;3.47;67.90
45078;BME280;60508;42.622;25.416;2023-02-02T03:28:04;96635.81;;;3.45;67.02
45078;BME280;60508;42.622;25.416;2023-02-02T03:30:31;96630.47;;;3.45;66.86
45078;BME280;60508;42.622;25.416;2023-02-02T03:32:58;96633.13;;;3.45;66.79
45078;BME280;60508;42.622;25.416;2023-02-02T03:35:24;96640.31;;;3.58;66.33
45078;BME280;60508;42.622;25.416;2023-02-02T03:37:51;96651.16;;;3.63;65.56
45078;BME280;60508;42.622;25.416;2023-02-02T03:40:18;96639.50;;;3.64;65.19
45078;BME280;60508;42.622;25.416;2023-02-02T03:42:44;96645.84;;;3.63;64.92
45078;BME280;60508;42.622;25.416;2023-02-02T03:45:10;96647.28;;;3.65;64.58
45078;BME280;60508;42.622;25.416;2023-02-02T03:47:37;96632.56;;;3.63;64.58
45078;BME280;60508;42.622;25.416;2023-02-02T03:50:04;96653.41;;;3.73;63.49
45078;BME280;60508;42.622;25.416;2023-02-02T03:52:30;96649.75;;;3.80;63.94
45078;BME280;60508;42.622;25.416;2023-02-02T03:54:56;96655.88;;;3.74;66.10
45078;BME280;60508;42.622;25.416;2023-02-02T03:57:22;96657.50;;;3.62;67.41
45078;BME280;60508;42.622;25.416;2023-02-02T03:59:48;96661.16;;;3.47;68.04
45078;BME280;60508;42.622;25.416;2023-02-02T04:02:14;96667.66;;;3.45;68.12
45078;BME280;60508;42.622;25.416;2023-02-02T04:04:40;96656.84;;;3.40;68.28
45078;BME280;60508;42.622;25.416;2023-02-02T04:07:06;96664.41;;;3.36;67.99
45078;BME280;60508;42.622;25.416;2023-02-02T04:09:33;96658.06;;;3.44;67.94
45078;BME280;60508;42.622;25.416;2023-02-02T04:11:59;96664.00;;;3.39;68.05
45078;BME280;60508;42.622;25.416;2023-02-02T04:14:25;96652.78;;;3.51;67.45
45078;BME280;60508;42.622;25.416;2023-02-02T04:16:51;96649.72;;;3.54;66.16
45078;BME280;60508;42.622;25.416;2023-02-02T04:19:17;96645.81;;;3.50;65.94
45078;BME280;60508;42.622;25.416;2023-02-02T04:21:43;96647.03;;;3.40;65.82
45078;BME280;60508;42.622;25.416;2023-02-02T04:24:10;96648.06;;;3.39;66.32
45078;BME280;60508;42.622;25.416;2023-02-02T04:26:36;96644.56;;;3.39;66.50
45078;BME280;60508;42.622;25.416;2023-02-02T04:29:02;96651.31;;;3.41;66.03
45078;BME280;60508;42.622;25.416;2023-02-02T04:31:29;96660.34;;;3.54;65.37
45078;BME280;60508;42.622;25.416;2023-02-02T04:33:55;96653.59;;;3.71;64.41
45078;BME280;60508;42.622;25.416;2023-02-02T04:36:22;96657.69;;;3.54;64.87
45078;BME280;60508;42.622;25.416;2023-02-02T04:38:52;96660.75;;;3.57;64.09
45078;BME280;60508;42.622;25.416;2023-02-02T04:41:18;96654.84;;;3.62;64.14
45078;BME280;60508;42.622;25.416;2023-02-02T04:43:45;96643.16;;;3.50;63.95
45078;BME280;60508;42.622;25.416;2023-02-02T04:46:12;96654.19;;;3.53;64.46
45078;BME280;60508;42.622;25.416;2023-02-02T04:48:38;96654.41;;;3.45;64.68
45078;BME280;60508;42.622;25.416;2023-02-02T04:51:08;96659.50;;;3.53;64.39
45078;BME280;60508;42.622;25.416;2023-02-02T04:53:34;96654.00;;;3.48;64.53
45078;BME280;60508;42.622;25.416;2023-02-02T04:56:08;96671.38;;;3.57;63.24
45078;BME280;60508;42.622;25.416;2023-02-02T04:58:35;96662.78;;;3.55;63.16
45078;BME280;60508;42.622;25.416;2023-02-02T05:01:00;96673.00;;;3.52;63.37
45078;BME280;60508;42.622;25.416;2023-02-02T05:03:32;96675.91;;;3.63;62.56
45078;BME280;60508;42.622;25.416;2023-02-02T05:06:02;96670.75;;;3.55;61.81
45078;BME280;60508;42.622;25.416;2023-02-02T05:08:28;96669.75;;;3.63;60.75
45078;BME280;60508;42.622;25.416;2023-02-02T05:10:55;96683.44;;;3.66;60.08
45078;BME280;60508;42.622;25.416;2023-02-02T05:13:21;96680.16;;;3.58;60.62
45078;BME280;60508;42.622;25.416;2023-02-02T05:15:47;96683.00;;;3.50;60.49
45078;BME280;60508;42.622;25.416;2023-02-02T05:18:14;96688.28;;;3.36;61.32
45078;BME280;60508;42.622;25.416;2023-02-02T05:20:41;96689.78;;;3.52;60.39
45078;BME280;60508;42.622;25.416;2023-02-02T05:23:06;96683.81;;;3.43;60.17
45078;BME280;60508;42.622;25.416;2023-02-02T05:25:32;96685.63;;;3.36;60.55
45078;BME280;60508;42.622;25.416;2023-02-02T05:27:58;96677.66;;;3.29;60.63
45078;BME280;60508;42.622;25.416;2023-02-02T05:30:24;96685.00;;;3.34;60.37
45078;BME280;60508;42.622;25.416;2023-02-02T05:32:50;96685.88;;;3.48;58.92
45078;BME280;60508;42.622;25.416;2023-02-02T05:35:17;96695.22;;;3.37;59.97
45078;BME280;60508;42.622;25.416;2023-02-02T05:37:43;96699.72;;;3.30;59.24
45078;BME280;60508;42.622;25.416;2023-02-02T05:40:09;96687.03;;;3.32;59.59
45078;BME280;60508;42.622;25.416;2023-02-02T05:42:36;96701.56;;;3.36;59.99
45078;BME280;60508;42.622;25.416;2023-02-02T05:45:02;96698.47;;;3.33;60.33
45078;BME280;60508;42.622;25.416;2023-02-02T05:47:28;96693.41;;;3.38;60.12
45078;BME280;60508;42.622;25.416;2023-02-02T05:49:54;96698.25;;;3.27;59.57
45078;BME280;60508;42.622;25.416;2023-02-02T05:52:23;96702.78;;;3.34;58.22
45078;BME280;60508;42.622;25.416;2023-02-02T05:54:50;96700.53;;;3.37;56.91
45078;BME280;60508;42.622;25.416;2023-02-02T05:57:16;96706.94;;;3.63;54.07
45078;BME280;60508;42.622;25.416;2023-02-02T05:59:42;96703.28;;;3.64;53.44
45078;BME280;60508;42.622;25.416;2023-02-02T06:02:08;96712.06;;;3.64;54.04
45078;BME280;60508;42.622;25.416;2023-02-02T06:04:34;96723.75;;;3.83;55.82
45078;BME280;60508;42.622;25.416;2023-02-02T06:07:00;96734.63;;;4.09;56.61
45078;BME280;60508;42.622;25.416;2023-02-02T06:09:27;96726.66;;;4.22;55.82
45078;BME280;60508;42.622;25.416;2023-02-02T06:11:53;96717.47;;;4.31;55.52
45078;BME280;60508;42.622;25.416;2023-02-02T06:14:19;96725.81;;;4.48;55.20
45078;BME280;60508;42.622;25.416;2023-02-02T06:16:45;96714.94;;;4.70;54.00
45078;BME280;60508;42.622;25.416;2023-02-02T06:19:10;96707.38;;;4.80;51.36
45078;BME280;60508;42.622;25.416;2023-02-02T06:21:38;96711.22;;;4.98;48.69
45078;BME280;60508;42.622;25.416;2023-02-02T06:24:04;96716.34;;;4.99;48.13
45078;BME280;60508;42.622;25.416;2023-02-02T06:26:31;96733.91;;;5.07;46.97
45078;BME280;60508;42.622;25.416;2023-02-02T06:28:57;96719.31;;;5.23;46.12
45078;BME280;60508;42.622;25.416;2023-02-02T06:31:23;96731.56;;;5.37;45.55
45078;BME280;60508;42.622;25.416;2023-02-02T06:33:56;96738.31;;;5.40;46.24
45078;BME280;60508;42.622;25.416;2023-02-02T06:36:24;96721.28;;;5.47;46.65
45078;BME280;60508;42.622;25.416;2023-02-02T06:38:52;96727.84;;;5.45;46.10
45078;BME280;60508;42.622;25.416;2023-02-02T06:41:19;96729.28;;;5.47;45.70
45078;BME280;60508;42.622;25.416;2023-02-02T06:43:46;96723.28;;;5.52;45.45
45078;BME280;60508;42.622;25.416;2023-02-02T06:46:12;96711.47;;;5.73;43.23
45078;BME280;60508;42.622;25.416;2023-02-02T06:48:38;96711.22;;;5.88;44.03
45078;BME280;60508;42.622;25.416;2023-02-02T06:51:06;96706.03;;;6.00;43.99
45078;BME280;60508;42.622;25.416;2023-02-02T06:53:33;96696.28;;;6.12;43.15
45078;BME280;60508;42.622;25.416;2023-02-02T06:56:02;96696.69;;;6.16;43.21
45078;BME280;60508;42.622;25.416;2023-02-02T06:58:30;96707.38;;;6.34;43.83
45078;BME280;60508;42.622;25.416;2023-02-02T07:01:09;96715.81;;;6.38;43.44
45078;BME280;60508;42.622;25.416;2023-02-02T07:03:36;96708.44;;;6.33;43.52
45078;BME280;60508;42.622;25.416;2023-02-02T07:06:17;96717.97;;;6.48;42.24
45078;BME280;60508;42.622;25.416;2023-02-02T07:08:43;96719.09;;;6.58;42.06
45078;BME280;60508;42.622;25.416;2023-02-02T07:11:09;96714.47;;;6.72;42.12
45078;BME280;60508;42.622;25.416;2023-02-02T07:13:35;96709.94;;;6.73;42.03
45078;BME280;60508;42.622;25.416;2023-02-02T07:16:03;96703.19;;;6.70;42.51
45078;BME280;60508;42.622;25.416;2023-02-02T07:18:29;96714.09;;;6.87;42.12
45078;BME280;60508;42.622;25.416;2023-02-02T07:20:59;96718.13;;;6.97;41.79
45078;BME280;60508;42.622;25.416;2023-02-02T07:23:29;96718.41;;;7.07;41.63
45078;BME280;60508;42.622;25.416;2023-02-02T07:26:07;96722.50;;;7.09;41.65
45078;BME280;60508;42.622;25.416;2023-02-02T07:28:34;96717.75;;;7.11;42.35
45078;BME280;60508;42.622;25.416;2023-02-02T07:31:00;96721.63;;;7.16;42.04
45078;BME280;60508;42.622;25.416;2023-02-02T07:33:27;96735.63;;;7.29;41.58
45078;BME280;60508;42.622;25.416;2023-02-02T07:35:53;96734.75;;;7.36;41.81
45078;BME280;60508;42.622;25.416;2023-02-02T07:38:19;96737.47;;;7.47;41.33
45078;BME280;60508;42.622;25.416;2023-02-02T07:40:46;96743.56;;;7.55;41.77
45078;BME280;60508;42.622;25.416;2023-02-02T07:43:12;96739.16;;;7.60;40.97
45078;BME280;60508;42.622;25.416;2023-02-02T07:45:38;96744.06;;;7.63;40.91
45078;BME280;60508;42.622;25.416;2023-02-02T07:48:04;96740.13;;;7.66;41.15
45078;BME280;60508;42.622;25.416;2023-02-02T07:50:31;96725.91;;;7.84;41.00
45078;BME280;60508;42.622;25.416;2023-02-02T07:52:58;96730.50;;;8.07;40.15
45078;BME280;60508;42.622;25.416;2023-02-02T07:55:24;96726.91;;;8.13;39.98
45078;BME280;60508;42.622;25.416;2023-02-02T07:57:51;96734.03;;;8.19;40.01
45078;BME280;60508;42.622;25.416;2023-02-02T08:00:19;96735.06;;;8.18;39.59
45078;BME280;60508;42.622;25.416;2023-02-02T08:02:47;96733.25;;;8.31;39.86
45078;BME280;60508;42.622;25.416;2023-02-02T08:05:14;96741.63;;;8.34;39.33
45078;BME280;60508;42.622;25.416;2023-02-02T08:07:40;96737.34;;;8.33;39.69
45078;BME280;60508;42.622;25.416;2023-02-02T08:10:06;96725.66;;;8.28;39.83
45078;BME280;60508;42.622;25.416;2023-02-02T08:12:32;96723.22;;;8.26;39.07
45078;BME280;60508;42.622;25.416;2023-02-02T08:14:58;96725.78;;;8.33;39.71
45078;BME280;60508;42.622;25.416;2023-02-02T08:17:23;96728.00;;;8.36;39.75
45078;BME280;60508;42.622;25.416;2023-02-02T08:19:49;96724.22;;;8.55;39.51
45078;BME280;60508;42.622;25.416;2023-02-02T08:22:16;96729.84;;;8.66;40.16
45078;BME280;60508;42.622;25.416;2023-02-02T08:24:42;96725.97;;;8.73;39.02
45078;BME280;60508;42.622;25.416;2023-02-02T08:27:09;96729.69;;;8.84;39.44
45078;BME280;60508;42.622;25.416;2023-02-02T08:29:36;96741.22;;;8.85;37.97
45078;BME280;60508;42.622;25.416;2023-02-02T08:32:03;96730.28;;;8.86;37.71
45078;BME280;60508;42.622;25.416;2023-02-02T08:34:29;96740.88;;;9.05;38.50
45078;BME280;60508;42.622;25.416;2023-02-02T08:36:55;96737.69;;;9.43;37.96
45078;BME280;60508;42.622;25.416;2023-02-02T08:39:22;96733.56;;;9.93;36.68
45078;BME280;60508;42.622;25.416;2023-02-02T08:41:49;96732.66;;;10.33;35.59
45078;BME280;60508;42.622;25.416;2023-02-02T08:44:15;96731.47;;;10.58;34.68
45078;BME280;60508;42.622;25.416;2023-02-02T08:46:41;96747.97;;;10.67;34.11
45078;BME280;60508;42.622;25.416;2023-02-02T08:49:10;96738.16;;;10.94;33.59
45078;BME280;60508;42.622;25.416;2023-02-02T08:51:36;96731.59;;;11.46;33.57
45078;BME280;60508;42.622;25.416;2023-02-02T08:54:03;96734.16;;;11.80;32.84
45078;BME280;60508;42.622;25.416;2023-02-02T08:56:29;96734.56;;;12.44;31.85
45078;BME280;60508;42.622;25.416;2023-02-02T08:58:57;96746.13;;;12.76;32.14
45078;BME280;60508;42.622;25.416;2023-02-02T09:01:28;96715.06;;;13.64;29.52
45078;BME280;60508;42.622;25.416;2023-02-02T09:03:56;96726.84;;;14.21;28.81
45078;BME280;60508;42.622;25.416;2023-02-02T09:06:39;96725.81;;;14.94;27.30
45078;BME280;60508;42.622;25.416;2023-02-02T09:09:09;96711.03;;;15.57;26.58
45078;BME280;60508;42.622;25.416;2023-02-02T09:11:36;96722.38;;;16.24;25.89
45078;BME280;60508;42.622;25.416;2023-02-02T09:14:03;96714.00;;;16.90;24.85
45078;BME280;60508;42.622;25.416;2023-02-02T09:16:32;96703.91;;;17.20;24.72
45078;BME280;60508;42.622;25.416;2023-02-02T09:18:58;96700.31;;;18.68;22.84
45078;BME280;60508;42.622;25.416;2023-02-02T09:21:24;96698.88;;;18.89;22.23
45078;BME280;60508;42.622;25.416;2023-02-02T09:23:51;96691.69;;;19.12;21.11
45078;BME280;60508;42.622;25.416;2023-02-02T09:26:21;96694.78;;;18.92;21.26
45078;BME280;60508;42.622;25.416;2023-02-02T09:31:18;96685.94;;;20.20;20.54
45078;BME280;60508;42.622;25.416;2023-02-02T09:33:44;96680.50;;;20.88;19.62
45078;BME280;60508;42.622;25.416;2023-02-02T09:36:20;96685.28;;;21.85;19.01
45078;BME280;60508;42.622;25.416;2023-02-02T09:38:48;96683.22;;;22.69;18.16
45078;BME280;60508;42.622;25.416;2023-02-02T09:47:01;96659.44;;;23.17;16.88
45078;BME280;60508;42.622;25.416;2023-02-02T09:50:01;96649.13;;;23.14;17.52
45078;BME280;60508;42.622;25.416;2023-02-02T09:52:34;96663.38;;;22.81;16.94
45078;BME280;60508;42.622;25.416;2023-02-02T09:55:40;96655.84;;;21.82;17.75
45078;BME280;60508;42.622;25.416;2023-02-02T10:00:58;96654.91;;;20.75;18.79
45078;BME280;60508;42.622;25.416;2023-02-02T10:03:35;96647.69;;;20.70;18.56
45078;BME280;60508;42.622;25.416;2023-02-02T10:08:56;96646.28;;;21.53;18.10
45078;BME280;60508;42.622;25.416;2023-02-02T10:14:10;96636.00;;;20.78;18.80
45078;BME280;60508;42.622;25.416;2023-02-02T10:16:40;96620.28;;;21.24;18.09
45078;BME280;60508;42.622;25.416;2023-02-02T10:19:10;96621.25;;;22.30;17.79
45078;BME280;60508;42.622;25.416;2023-02-02T10:24:21;96611.38;;;22.64;17.18
45078;BME280;60508;42.622;25.416;2023-02-02T10:26:50;96609.84;;;19.45;18.55
45078;BME280;60508;42.622;25.416;2023-02-02T10:34:39;96602.53;;;14.63;23.99
45078;BME280;60508;42.622;25.416;2023-02-02T10:37:31;96614.97;;;14.22;25.14
45078;BME280;60508;42.622;25.416;2023-02-02T10:45:47;96613.63;;;11.87;27.50
45078;BME280;60508;42.622;25.416;2023-02-02T10:48:20;96626.22;;;11.82;28.23
45078;BME280;60508;42.622;25.416;2023-02-02T10:50:49;96629.00;;;11.87;28.84
45078;BME280;60508;42.622;25.416;2023-02-02T10:53:16;96610.91;;;11.82;28.23
45078;BME280;60508;42.622;25.416;2023-02-02T10:55:54;96607.34;;;11.49;28.38
45078;BME280;60508;42.622;25.416;2023-02-02T10:58:47;96604.25;;;11.36;28.78
45078;BME280;60508;42.622;25.416;2023-02-02T11:01:15;96589.00;;;12.01;28.19
45078;BME280;60508;42.622;25.416;2023-02-02T11:03:42;96587.44;;;12.95;26.10
45078;BME280;60508;42.622;25.416;2023-02-02T11:06:10;96588.81;;;17.21;21.44
45078;BME280;60508;42.622;25.416;2023-02-02T11:08:56;96600.94;;;19.67;19.23
45078;BME280;60508;42.622;25.416;2023-02-02T11:11:34;96591.31;;;17.55;20.51
45078;BME280;60508;42.622;25.416;2023-02-02T11:14:12;96580.06;;;15.87;21.94
45078;BME280;60508;42.622;25.416;2023-02-02T11:16:43;96576.53;;;15.37;23.29
45078;BME280;60508;42.622;25.416;2023-02-02T11:21:56;96569.84;;;15.79;23.20
45078;BME280;60508;42.622;25.416;2023-02-02T11:24:26;96563.44;;;15.10;24.22
45078;BME280;60508;42.622;25.416;2023-02-02T11:26:58;96552.06;;;16.56;23.56
45078;BME280;60508;42.622;25.416;2023-02-02T11:29:33;96555.31;;;20.18;19.03
45078;BME280;60508;42.622;25.416;2023-02-02T11:32:35;96551.72;;;18.39;19.37
45078;BME280;60508;42.622;25.416;2023-02-02T11:43:00;96528.00;;;13.69;25.13
45078;BME280;60508;42.622;25.416;2023-02-02T11:45:35;96528.13;;;13.06;25.35
45078;BME280;60508;42.622;25.416;2023-02-02T11:48:15;96535.50;;;12.63;25.90
45078;BME280;60508;42.622;25.416;2023-02-02T11:50:53;96523.50;;;12.28;25.98
45078;BME280;60508;42.622;25.416;2023-02-02T11:53:47;96514.69;;;12.00;27.55
45078;BME280;60508;42.622;25.416;2023-02-02T11:56:19;96509.50;;;12.31;26.42
45078;BME280;60508;42.622;25.416;2023-02-02T11:58:49;96510.28;;;14.79;24.33
45078;BME280;60508;42.622;25.416;2023-02-02T12:03:59;96509.38;;;23.35;16.70
45078;BME280;60508;42.622;25.416;2023-02-02T12:06:34;96504.63;;;25.93;14.21
45078;BME280;60508;42.622;25.416;2023-02-02T12:09:27;96509.03;;;24.21;14.75
45078;BME280;60508;42.622;25.416;2023-02-02T12:17:35;96495.69;;;21.06;17.12
45078;BME280;60508;42.622;25.416;2023-02-02T12:23:14;96502.38;;;18.59;18.92
45078;BME280;60508;42.622;25.416;2023-02-02T12:25:50;96487.09;;;17.51;20.43
45078;BME280;60508;42.622;25.416;2023-02-02T12:37:06;96482.09;;;19.80;18.10
45078;BME280;60508;42.622;25.416;2023-02-02T12:39:58;96474.53;;;18.07;20.51
45078;BME280;60508;42.622;25.416;2023-02-02T12:42:49;96480.41;;;17.05;21.22
45078;BME280;60508;42.622;25.416;2023-02-02T12:48:49;96468.63;;;15.25;23.88
45078;BME280;60508;42.622;25.416;2023-02-02T12:59:41;96462.88;;;14.12;25.13
45078;BME280;60508;42.622;25.416;2023-02-02T13:02:04;96474.22;;;13.16;27.18
45078;BME280;60508;42.622;25.416;2023-02-02T13:04:48;96461.31;;;12.39;28.28
45078;BME280;60508;42.622;25.416;2023-02-02T13:07:38;96463.00;;;12.03;29.58
45078;BME280;60508;42.622;25.416;2023-02-02T13:12:51;96465.72;;;11.38;30.59
45078;BME280;60508;42.622;25.416;2023-02-02T13:15:20;96468.63;;;11.64;30.62
45078;BME280;60508;42.622;25.416;2023-02-02T13:17:52;96468.88;;;11.62;30.65
45078;BME280;60508;42.622;25.416;2023-02-02T13:23:26;96488.66;;;11.13;32.00
45078;BME280;60508;42.622;25.416;2023-02-02T13:26:00;96492.25;;;10.97;33.59
45078;BME280;60508;42.622;25.416;2023-02-02T13:28:39;96498.78;;;11.33;33.66
45078;BME280;60508;42.622;25.416;2023-02-02T13:31:14;96491.72;;;11.55;34.10
45078;BME280;60508;42.622;25.416;2023-02-02T13:33:42;96479.06;;;13.19;31.63
45078;BME280;60508;42.622;25.416;2023-02-02T13:36:26;96485.88;;;15.34;28.82
45078;BME280;60508;42.622;25.416;2023-02-02T13:38:57;96482.75;;;15.91;27.88
45078;BME280;60508;42.622;25.416;2023-02-02T13:41:25;96473.94;;;14.96;29.23
45078;BME280;60508;42.622;25.416;2023-02-02T13:43:59;96472.25;;;14.40;30.47
45078;BME280;60508;42.622;25.416;2023-02-02T13:49:21;96468.34;;;13.50;31.79
45078;BME280;60508;42.622;25.416;2023-02-02T13:59:58;96466.34;;;11.45;35.25
45078;BME280;60508;42.622;25.416;2023-02-02T14:02:33;96480.06;;;11.17;36.05
45078;BME280;60508;42.622;25.416;2023-02-02T14:05:02;96482.09;;;11.04;36.12
45078;BME280;60508;42.622;25.416;2023-02-02T14:07:37;96482.06;;;10.77;36.32
45078;BME280;60508;42.622;25.416;2023-02-02T14:10:22;96498.22;;;10.16;37.75
45078;BME280;60508;42.622;25.416;2023-02-02T14:12:50;96504.28;;;9.38;40.77
45078;BME280;60508;42.622;25.416;2023-02-02T14:15:17;96511.22;;;9.05;42.79
45078;BME280;60508;42.622;25.416;2023-02-02T14:20:52;96499.41;;;8.25;48.21
45078;BME280;60508;42.622;25.416;2023-02-02T14:23:50;96503.88;;;7.72;52.24
45078;BME280;60508;42.622;25.416;2023-02-02T14:26:40;96523.41;;;7.61;53.78
45078;BME280;60508;42.622;25.416;2023-02-02T14:38:07;96560.97;;;6.01;62.73
45078;BME280;60508;42.622;25.416;2023-02-02T14:41:00;96585.75;;;5.76;64.91
45078;BME280;60508;42.622;25.416;2023-02-02T14:43:35;96579.56;;;5.57;64.76
45078;BME280;60508;42.622;25.416;2023-02-02T14:48:46;96585.75;;;5.51;64.92
45078;BME280;60508;42.622;25.416;2023-02-02T14:51:16;96593.75;;;5.51;65.08
45078;BME280;60508;42.622;25.416;2023-02-02T14:53:52;96607.22;;;5.56;64.78
45078;BME280;60508;42.622;25.416;2023-02-02T14:56:19;96608.63;;;5.65;64.11
45078;BME280;60508;42.622;25.416;2023-02-02T15:06:33;96643.44;;;6.02;59.43
45078;BME280;60508;42.622;25.416;2023-02-02T15:22:49;96591.72;;;5.46;58.62
45078;BME280;60508;42.622;25.416;2023-02-02T15:28:58;96617.41;;;4.96;67.05
45078;BME280;60508;42.622;25.416;2023-02-02T15:31:34;96636.94;;;4.76;69.42
45078;BME280;60508;42.622;25.416;2023-02-02T15:34:13;96635.38;;;4.48;72.52
45078;BME280;60508;42.622;25.416;2023-02-02T15:36:43;96666.91;;;4.38;73.91
45078;BME280;60508;42.622;25.416;2023-02-02T15:42:28;96706.59;;;4.19;76.65
45078;BME280;60508;42.622;25.416;2023-02-02T15:45:48;96705.19;;;4.30;76.05
45078;BME280;60508;42.622;25.416;2023-02-02T15:48:26;96683.47;;;4.40;75.43
45078;BME280;60508;42.622;25.416;2023-02-02T15:51:16;96667.50;;;4.53;75.17
45078;BME280;60508;42.622;25.416;2023-02-02T15:58:52;96647.19;;;4.72;74.96
45078;BME280;60508;42.622;25.416;2023-02-02T16:01:20;96665.22;;;4.64;75.43
45078;BME280;60508;42.622;25.416;2023-02-02T16:04:11;96673.63;;;4.61;75.98